OPDR Andalucia — ECKZ — position and weather

sailwx.info

Track history (hours):
 
Tides and Currents Weather Stations Pressure Air Temp Water Temp Dewpoint Dewpoint Depression Visibility Wind Speed Wind Dir Waves Ship Positions

OPDR Andalucia

Last reported at 2018-Apr-18 05:07 UTC. Time now 2018-Apr-20 03:00 UTC.
Position N 31°59' W 010°56'.

Length 145 m; draft 5 m.

Type: Ship (hazmat cat A). MMSI: 225302000.

Date/timePositionNaut miles runAvg speedWind from/ knotsBaromVisibWave heightAir tempDewpointWater temp
2018-Apr-18 05:07N 31°59' W 010°56'514.6
2018-Apr-18 04:46N 31°55' W 010°59'414.4
2018-Apr-18 04:30N 31°52' W 011°02'6514.3
2018-Apr-17 23:57N 30°60' W 011°47'1015.0
2018-Apr-17 23:17N 30°52' W 011°55'415.0
2018-Apr-17 22:59N 30°48' W 011°58'2614.9
2018-Apr-17 21:14N 30°27' W 012°15'314.7
2018-Apr-17 21:00N 30°24' W 012°18'714.7
2018-Apr-17 20:30N 30°18' W 012°23'714.6
2018-Apr-17 20:01N 30°13' W 012°28'814.7
2018-Apr-17 19:30N 30°06' W 012°33'715.2
2018-Apr-17 19:00N 30°00' W 012°38'715.0
2018-Apr-17 18:31N 29°54' W 012°43'815.2
2018-Apr-17 18:00N 29°48' W 012°48'815.1
2018-Apr-17 17:30N 29°42' W 012°53'815.1
2018-Apr-17 17:00N 29°36' W 012°58'815.2
2018-Apr-17 16:31N 29°29' W 013°03'815.2
2018-Apr-17 16:01N 29°23' W 013°08'1715.1
2018-Apr-17 14:53N 29°09' W 013°19'615.1
2018-Apr-17 14:30N 29°05' W 013°23'714.7
2018-Apr-17 14:00N 28°59' W 013°28'4 7.1
2018-Apr-17 13:30N 28°58' W 013°32'0 0.0
2018-Apr-17 12:58N 28°58' W 013°32'0 0.0
2018-Apr-17 12:29N 28°58' W 013°32'0 0.0
2018-Apr-17 11:59N 28°58' W 013°32'0 0.0
2018-Apr-17 11:30N 28°58' W 013°32'0 0.0
2018-Apr-17 10:45N 28°58' W 013°32'0 0.0
2018-Apr-17 10:17N 28°58' W 013°32'0 0.0
2018-Apr-17 09:53N 28°58' W 013°32'0 0.0
2018-Apr-17 09:27N 28°58' W 013°32'0 0.0
2018-Apr-17 09:00N 28°58' W 013°32'0 0.0
2018-Apr-17 08:30N 28°58' W 013°32'2 3.5
2018-Apr-17 08:00N 28°57' W 013°33'714.1
2018-Apr-17 07:28N 28°53' W 013°40'714.4
2018-Apr-17 06:58N 28°49' W 013°47'1314.0
2018-Apr-17 06:03N 28°46' W 014°01'4314.3
2018-Apr-17 03:01N 28°26' W 014°45'114.2
2018-Apr-17 02:59N 28°26' W 014°46'714.3
2018-Apr-17 02:30N 28°23' W 014°53'714.2
2018-Apr-17 02:00N 28°19' W 014°60'714.3
2018-Apr-17 01:30N 28°16' W 015°07'714.5
2018-Apr-17 01:00N 28°12' W 015°14'714.7
2018-Apr-17 00:30N 28°08' W 015°21'3 5.6
2018-Apr-16 23:53N 28°09' W 015°25'0 0.0
2018-Apr-16 23:23N 28°09' W 015°25'0 0.0
2018-Apr-16 22:52N 28°09' W 015°25'0 0.0
2018-Apr-16 22:22N 28°09' W 015°25'0 0.0
2018-Apr-16 21:52N 28°09' W 015°25'0 0.0
2018-Apr-16 21:28N 28°09' W 015°25'0 0.0
2018-Apr-16 20:59N 28°09' W 015°25'0 0.0
2018-Apr-16 20:29N 28°09' W 015°25'0 0.0
2018-Apr-16 19:59N 28°09' W 015°25'0 0.0
2018-Apr-16 19:25N 28°09' W 015°25'0 0.0
2018-Apr-16 18:53N 28°09' W 015°25'0 0.0
2018-Apr-16 18:30N 28°09' W 015°25'0 0.0
2018-Apr-16 17:53N 28°09' W 015°25'0 0.0
2018-Apr-16 17:23N 28°09' W 015°25'0 0.0
2018-Apr-16 16:57N 28°09' W 015°25'1 3.2
2018-Apr-16 16:31N 28°07' W 015°24'5 9.0
2018-Apr-16 16:00N 28°12' W 015°24'714.1
2018-Apr-16 15:30N 28°15' W 015°31'714.1
2018-Apr-16 15:00N 28°17' W 015°39'714.1
2018-Apr-16 14:30N 28°19' W 015°46'714.2
2018-Apr-16 14:00N 28°22' W 015°54'714.4
2018-Apr-16 13:31N 28°24' W 016°01'714.3
2018-Apr-16 13:00N 28°27' W 016°09'5 9.0
2018-Apr-16 12:30N 28°29' W 016°13'0 0.1
2018-Apr-16 11:59N 28°29' W 016°13'0 0.0
2018-Apr-16 11:30N 28°29' W 016°13'0 0.0
2018-Apr-16 10:59N 28°29' W 016°13'0 0.0
2018-Apr-16 10:28N 28°29' W 016°13'0 0.0
2018-Apr-16 09:58N 28°29' W 016°13'0 0.0
2018-Apr-16 09:30N 28°29' W 016°13'0 0.1
2018-Apr-16 07:23N 28°29' W 016°13'1 2.9
2018-Apr-16 06:55N 28°29' W 016°12'1 1.9
2018-Apr-16 06:30N 28°29' W 016°11'1 1.2
2018-Apr-16 06:00N 28°29' W 016°11'510.6
2018-Apr-16 05:30N 28°31' W 016°05'815.9
2018-Apr-16 05:00N 28°37' W 015°59'1115.6
2018-Apr-16 04:16N 28°45' W 015°50'515.4
2018-Apr-16 03:58N 28°48' W 015°46'815.3
2018-Apr-16 03:29N 28°54' W 015°40'  
2018-Apr-10 15:59N 28°46' W 014°50'612.6
2018-Apr-10 15:31N 28°41' W 014°54'612.9
2018-Apr-10 15:00N 28°35' W 014°58'612.6
2018-Apr-10 14:30N 28°30' W 015°03'612.5
2018-Apr-10 14:01N 28°25' W 015°07'612.4
2018-Apr-10 13:30N 28°20' W 015°11'612.7
2018-Apr-10 13:00N 28°15' W 015°16'612.5
2018-Apr-10 12:31N 28°11' W 015°20'5 9.3
2018-Apr-10 12:00N 28°08' W 015°25'1 1.8
2018-Apr-10 11:30N 28°09' W 015°25'0 0.0
2018-Apr-10 10:51N 28°09' W 015°25'0 0.0
2018-Apr-10 10:30N 28°09' W 015°25'0 0.0
2018-Apr-10 10:00N 28°09' W 015°25'0 0.0
2018-Apr-10 09:29N 28°09' W 015°25'0 0.0
2018-Apr-10 08:49N 28°09' W 015°25'0 0.0
2018-Apr-10 08:28N 28°09' W 015°25'0 0.0
2018-Apr-10 07:49N 28°09' W 015°25'0 0.0
2018-Apr-10 07:22N 28°09' W 015°25'0 0.0
2018-Apr-10 06:53N 28°09' W 015°25'0 0.0
2018-Apr-10 06:27N 28°09' W 015°25'0 0.0
2018-Apr-10 05:53N 28°09' W 015°25'0 0.0
2018-Apr-10 05:26N 28°09' W 015°25'0 0.0
2018-Apr-10 04:56N 28°09' W 015°25'0 0.0
2018-Apr-10 04:25N 28°09' W 015°25'0 0.0
2018-Apr-10 03:46N 28°09' W 015°25'0 0.0
2018-Apr-10 03:28N 28°09' W 015°25'0 0.0
2018-Apr-10 02:51N 28°09' W 015°25'0 0.0
2018-Apr-10 02:24N 28°09' W 015°25'0 0.0
2018-Apr-10 01:58N 28°09' W 015°25'0 0.0
2018-Apr-10 01:28N 28°09' W 015°25'0 0.0
2018-Apr-10 00:59N 28°09' W 015°25'0 0.0
2018-Apr-10 00:29N 28°09' W 015°25'0 0.0
2018-Apr-09 23:59N 28°09' W 015°25'0 0.0
2018-Apr-09 23:29N 28°09' W 015°25'0 0.0
2018-Apr-09 22:59N 28°09' W 015°25'0 0.0
2018-Apr-09 22:30N 28°09' W 015°25'0 0.0
2018-Apr-09 21:52N 28°09' W 015°25'0 0.0
2018-Apr-09 21:22N 28°09' W 015°25'0 0.0
2018-Apr-09 21:00N 28°09' W 015°25'1 2.4
2018-Apr-09 20:30N 28°08' W 015°25'2 3.6
2018-Apr-09 20:00N 28°09' W 015°23'611.5
2018-Apr-09 19:30N 28°13' W 015°27'713.9
2018-Apr-09 19:00N 28°14' W 015°35'713.8
2018-Apr-09 18:30N 28°16' W 015°43'714.0
2018-Apr-09 18:00N 28°19' W 015°50'714.2
2018-Apr-09 17:30N 28°22' W 015°57'714.7
2018-Apr-09 17:00N 28°25' W 016°05'714.5
2018-Apr-09 16:30N 28°28' W 016°12'2 3.4
2018-Apr-09 16:00N 28°29' W 016°14'0 0.0
2018-Apr-09 15:29N 28°29' W 016°14'0 0.0
2018-Apr-09 14:58N 28°29' W 016°14'0 0.0
2018-Apr-09 14:23N 28°29' W 016°14'0 0.0
2018-Apr-09 13:58N 28°29' W 016°14'0 0.0
2018-Apr-09 13:28N 28°29' W 016°14'0 0.0
2018-Apr-09 13:00N 28°29' W 016°14'0 0.1
2018-Apr-09 12:30N 28°29' W 016°14'0 0.7
2018-Apr-09 11:58N 28°29' W 016°13'0 0.0
2018-Apr-09 11:28N 28°29' W 016°13'0 0.0
2018-Apr-09 11:00N 28°29' W 016°13'0 0.0
2018-Apr-09 10:28N 28°29' W 016°13'0 0.0
2018-Apr-09 09:58N 28°29' W 016°13'0 0.0
2018-Apr-09 09:28N 28°29' W 016°13'0 0.0
2018-Apr-09 08:58N 28°29' W 016°13'0 0.0
2018-Apr-09 08:28N 28°29' W 016°13'0 0.0
2018-Apr-09 07:59N 28°29' W 016°13'0 0.0
2018-Apr-09 07:29N 28°29' W 016°13'0 0.0
2018-Apr-09 07:00N 28°29' W 016°13'0 0.0
2018-Apr-09 06:30N 28°29' W 016°13'0 0.0
2018-Apr-09 05:59N 28°29' W 016°13'0 0.0
2018-Apr-09 05:30N 28°29' W 016°13'0 0.3
2018-Apr-09 05:01N 28°29' W 016°13'2 4.6
2018-Apr-09 04:30N 28°29' W 016°11'714.9
2018-Apr-09 04:00N 28°32' W 016°03'714.8
2018-Apr-09 03:30N 28°37' W 015°56'814.6
2018-Apr-09 02:59N 28°42' W 015°50'714.5
2018-Apr-09 02:30N 28°47' W 015°44'714.5
2018-Apr-09 02:00N 28°51' W 015°38'814.2
2018-Apr-09 01:26N 28°57' W 015°31'  
Track history (hours):
 
Tides and Currents Weather Stations Pressure Air Temp Water Temp Dewpoint Dewpoint Depression Visibility Wind Speed Wind Dir Waves Ship Positions

OPDR Andalucia

Last reported at 2018-Apr-18 05:07 UTC. Time now 2018-Apr-20 03:00 UTC.
Position N 31°59' W 010°56'.

Length 145 m; draft 5 m.

Type: Ship (hazmat cat A). MMSI: 225302000.

Date/timePositionNaut miles runAvg speedWind from/ knotsBaromVisibWave heightAir tempDewpointWater temp
2018-Apr-18 05:07N 31°59' W 010°56'514.6
2018-Apr-18 04:46N 31°55' W 010°59'414.4
2018-Apr-18 04:30N 31°52' W 011°02'6514.3
2018-Apr-17 23:57N 30°60' W 011°47'1015.0
2018-Apr-17 23:17N 30°52' W 011°55'415.0
2018-Apr-17 22:59N 30°48' W 011°58'2614.9
2018-Apr-17 21:14N 30°27' W 012°15'314.7
2018-Apr-17 21:00N 30°24' W 012°18'714.7
2018-Apr-17 20:30N 30°18' W 012°23'714.6
2018-Apr-17 20:01N 30°13' W 012°28'814.7
2018-Apr-17 19:30N 30°06' W 012°33'715.2
2018-Apr-17 19:00N 30°00' W 012°38'715.0
2018-Apr-17 18:31N 29°54' W 012°43'815.2
2018-Apr-17 18:00N 29°48' W 012°48'815.1
2018-Apr-17 17:30N 29°42' W 012°53'815.1
2018-Apr-17 17:00N 29°36' W 012°58'815.2
2018-Apr-17 16:31N 29°29' W 013°03'815.2
2018-Apr-17 16:01N 29°23' W 013°08'1715.1
2018-Apr-17 14:53N 29°09' W 013°19'615.1
2018-Apr-17 14:30N 29°05' W 013°23'714.7
2018-Apr-17 14:00N 28°59' W 013°28'4 7.1
2018-Apr-17 13:30N 28°58' W 013°32'0 0.0
2018-Apr-17 12:58N 28°58' W 013°32'0 0.0
2018-Apr-17 12:29N 28°58' W 013°32'0 0.0
2018-Apr-17 11:59N 28°58' W 013°32'0 0.0
2018-Apr-17 11:30N 28°58' W 013°32'0 0.0
2018-Apr-17 10:45N 28°58' W 013°32'0 0.0
2018-Apr-17 10:17N 28°58' W 013°32'0 0.0
2018-Apr-17 09:53N 28°58' W 013°32'0 0.0
2018-Apr-17 09:27N 28°58' W 013°32'0 0.0
2018-Apr-17 09:00N 28°58' W 013°32'0 0.0
2018-Apr-17 08:30N 28°58' W 013°32'2 3.5
2018-Apr-17 08:00N 28°57' W 013°33'714.1
2018-Apr-17 07:28N 28°53' W 013°40'714.4
2018-Apr-17 06:58N 28°49' W 013°47'1314.0
2018-Apr-17 06:03N 28°46' W 014°01'4314.3
2018-Apr-17 03:01N 28°26' W 014°45'114.2
2018-Apr-17 02:59N 28°26' W 014°46'714.3
2018-Apr-17 02:30N 28°23' W 014°53'714.2
2018-Apr-17 02:00N 28°19' W 014°60'714.3
2018-Apr-17 01:30N 28°16' W 015°07'714.5
2018-Apr-17 01:00N 28°12' W 015°14'714.7
2018-Apr-17 00:30N 28°08' W 015°21'3 5.6
2018-Apr-16 23:53N 28°09' W 015°25'0 0.0
2018-Apr-16 23:23N 28°09' W 015°25'0 0.0
2018-Apr-16 22:52N 28°09' W 015°25'0 0.0
2018-Apr-16 22:22N 28°09' W 015°25'0 0.0
2018-Apr-16 21:52N 28°09' W 015°25'0 0.0
2018-Apr-16 21:28N 28°09' W 015°25'0 0.0
2018-Apr-16 20:59N 28°09' W 015°25'0 0.0
2018-Apr-16 20:29N 28°09' W 015°25'0 0.0
2018-Apr-16 19:59N 28°09' W 015°25'0 0.0
2018-Apr-16 19:25N 28°09' W 015°25'0 0.0
2018-Apr-16 18:53N 28°09' W 015°25'0 0.0
2018-Apr-16 18:30N 28°09' W 015°25'0 0.0
2018-Apr-16 17:53N 28°09' W 015°25'0 0.0
2018-Apr-16 17:23N 28°09' W 015°25'0 0.0
2018-Apr-16 16:57N 28°09' W 015°25'1 3.2
2018-Apr-16 16:31N 28°07' W 015°24'5 9.0
2018-Apr-16 16:00N 28°12' W 015°24'714.1
2018-Apr-16 15:30N 28°15' W 015°31'714.1
2018-Apr-16 15:00N 28°17' W 015°39'714.1
2018-Apr-16 14:30N 28°19' W 015°46'714.2
2018-Apr-16 14:00N 28°22' W 015°54'714.4
2018-Apr-16 13:31N 28°24' W 016°01'714.3
2018-Apr-16 13:00N 28°27' W 016°09'5 9.0
2018-Apr-16 12:30N 28°29' W 016°13'0 0.1
2018-Apr-16 11:59N 28°29' W 016°13'0 0.0
2018-Apr-16 11:30N 28°29' W 016°13'0 0.0
2018-Apr-16 10:59N 28°29' W 016°13'0 0.0
2018-Apr-16 10:28N 28°29' W 016°13'0 0.0
2018-Apr-16 09:58N 28°29' W 016°13'0 0.0
2018-Apr-16 09:30N 28°29' W 016°13'0 0.1
2018-Apr-16 07:23N 28°29' W 016°13'1 2.9
2018-Apr-16 06:55N 28°29' W 016°12'1 1.9
2018-Apr-16 06:30N 28°29' W 016°11'1 1.2
2018-Apr-16 06:00N 28°29' W 016°11'510.6
2018-Apr-16 05:30N 28°31' W 016°05'815.9
2018-Apr-16 05:00N 28°37' W 015°59'1115.6
2018-Apr-16 04:16N 28°45' W 015°50'515.4
2018-Apr-16 03:58N 28°48' W 015°46'815.3
2018-Apr-16 03:29N 28°54' W 015°40'  
2018-Apr-10 15:59N 28°46' W 014°50'612.6
2018-Apr-10 15:31N 28°41' W 014°54'612.9
2018-Apr-10 15:00N 28°35' W 014°58'612.6
2018-Apr-10 14:30N 28°30' W 015°03'612.5
2018-Apr-10 14:01N 28°25' W 015°07'612.4
2018-Apr-10 13:30N 28°20' W 015°11'612.7
2018-Apr-10 13:00N 28°15' W 015°16'612.5
2018-Apr-10 12:31N 28°11' W 015°20'5 9.3
2018-Apr-10 12:00N 28°08' W 015°25'1 1.8
2018-Apr-10 11:30N 28°09' W 015°25'0 0.0
2018-Apr-10 10:51N 28°09' W 015°25'0 0.0
2018-Apr-10 10:30N 28°09' W 015°25'0 0.0
2018-Apr-10 10:00N 28°09' W 015°25'0 0.0
2018-Apr-10 09:29N 28°09' W 015°25'0 0.0
2018-Apr-10 08:49N 28°09' W 015°25'0 0.0
2018-Apr-10 08:28N 28°09' W 015°25'0 0.0
2018-Apr-10 07:49N 28°09' W 015°25'0 0.0
2018-Apr-10 07:22N 28°09' W 015°25'0 0.0
2018-Apr-10 06:53N 28°09' W 015°25'0 0.0
2018-Apr-10 06:27N 28°09' W 015°25'0 0.0
2018-Apr-10 05:53N 28°09' W 015°25'0 0.0
2018-Apr-10 05:26N 28°09' W 015°25'0 0.0
2018-Apr-10 04:56N 28°09' W 015°25'0 0.0
2018-Apr-10 04:25N 28°09' W 015°25'0 0.0
2018-Apr-10 03:46N 28°09' W 015°25'0 0.0
2018-Apr-10 03:28N 28°09' W 015°25'0 0.0
2018-Apr-10 02:51N 28°09' W 015°25'0 0.0
2018-Apr-10 02:24N 28°09' W 015°25'0 0.0
2018-Apr-10 01:58N 28°09' W 015°25'0 0.0
2018-Apr-10 01:28N 28°09' W 015°25'0 0.0
2018-Apr-10 00:59N 28°09' W 015°25'0 0.0
2018-Apr-10 00:29N 28°09' W 015°25'0 0.0
2018-Apr-09 23:59N 28°09' W 015°25'0 0.0
2018-Apr-09 23:29N 28°09' W 015°25'0 0.0
2018-Apr-09 22:59N 28°09' W 015°25'0 0.0
2018-Apr-09 22:30N 28°09' W 015°25'0 0.0
2018-Apr-09 21:52N 28°09' W 015°25'0 0.0
2018-Apr-09 21:22N 28°09' W 015°25'0 0.0
2018-Apr-09 21:00N 28°09' W 015°25'1 2.4
2018-Apr-09 20:30N 28°08' W 015°25'2 3.6
2018-Apr-09 20:00N 28°09' W 015°23'611.5
2018-Apr-09 19:30N 28°13' W 015°27'713.9
2018-Apr-09 19:00N 28°14' W 015°35'713.8
2018-Apr-09 18:30N 28°16' W 015°43'714.0
2018-Apr-09 18:00N 28°19' W 015°50'714.2
2018-Apr-09 17:30N 28°22' W 015°57'714.7
2018-Apr-09 17:00N 28°25' W 016°05'714.5
2018-Apr-09 16:30N 28°28' W 016°12'2 3.4
2018-Apr-09 16:00N 28°29' W 016°14'0 0.0
2018-Apr-09 15:29N 28°29' W 016°14'0 0.0
2018-Apr-09 14:58N 28°29' W 016°14'0 0.0
2018-Apr-09 14:23N 28°29' W 016°14'0 0.0
2018-Apr-09 13:58N 28°29' W 016°14'0 0.0
2018-Apr-09 13:28N 28°29' W 016°14'0 0.0
2018-Apr-09 13:00N 28°29' W 016°14'0 0.1
2018-Apr-09 12:30N 28°29' W 016°14'0 0.7
2018-Apr-09 11:58N 28°29' W 016°13'0 0.0
2018-Apr-09 11:28N 28°29' W 016°13'0 0.0
2018-Apr-09 11:00N 28°29' W 016°13'0 0.0
2018-Apr-09 10:28N 28°29' W 016°13'0 0.0
2018-Apr-09 09:58N 28°29' W 016°13'0 0.0
2018-Apr-09 09:28N 28°29' W 016°13'0 0.0
2018-Apr-09 08:58N 28°29' W 016°13'0 0.0
2018-Apr-09 08:28N 28°29' W 016°13'0 0.0
2018-Apr-09 07:59N 28°29' W 016°13'0 0.0
2018-Apr-09 07:29N 28°29' W 016°13'0 0.0
2018-Apr-09 07:00N 28°29' W 016°13'0 0.0
2018-Apr-09 06:30N 28°29' W 016°13'0 0.0
2018-Apr-09 05:59N 28°29' W 016°13'0 0.0
2018-Apr-09 05:30N 28°29' W 016°13'0 0.3
2018-Apr-09 05:01N 28°29' W 016°13'2 4.6
2018-Apr-09 04:30N 28°29' W 016°11'714.9
2018-Apr-09 04:00N 28°32' W 016°03'714.8
2018-Apr-09 03:30N 28°37' W 015°56'814.6
2018-Apr-09 02:59N 28°42' W 015°50'714.5
2018-Apr-09 02:30N 28°47' W 015°44'714.5
2018-Apr-09 02:00N 28°51' W 015°38'814.2
2018-Apr-09 01:26N 28°57' W 015°31'  

Dump ship's entire track history